Time;durP1;ratioP1;P1;durP2;ratioP2;P2;SDS_P1;SDS_P2;PMS_P1;PMS_P2;Temp;Humidity;BMP_temperature;BMP_pressure;BME280_temperature;BME280_humidity;BME280_pressure;Samples;Min_cycle;Max_cycle;Signal;HPM_P1;HPM_P2
2022/05/24 00:01:25;;;;;;;4.30;3.73;;;;;;;;;;4975459;28;20278;-75
2022/05/24 00:03:52;;;;;;;5.30;4.00;;;;;;;;;;4975335;28;20186;-75
2022/05/24 00:06:18;;;;;;;5.13;3.70;;;;;;;;;;4991747;28;20185;-74
2022/05/24 00:08:45;;;;;;;4.07;3.77;;;;;;;;;;4991777;28;20207;-74
2022/05/24 00:11:11;;;;;;;3.90;3.60;;;;;;;;;;4991606;28;20183;-75
2022/05/24 00:13:37;;;;;;;5.03;4.00;;;;;;;;;;4975347;28;20183;-74
2022/05/24 00:16:03;;;;;;;4.90;3.90;;;;;;;;;;4991548;28;20211;-75
2022/05/24 00:18:30;;;;;;;5.67;5.00;;;;;;;;;;4991148;28;20249;-74
2022/05/24 00:21:00;;;;;;;6.00;5.50;;;;;;;;;;4991484;28;20179;-74
2022/05/24 00:23:26;;;;;;;6.30;5.70;;;;;;;;;;4975481;28;20190;-75
2022/05/24 00:25:54;;;;;;;6.90;6.23;;;;;;;;;;4991567;28;20183;-75
2022/05/24 00:28:21;;;;;;;9.57;7.17;;;;;;;;;;4991594;28;20203;-74
2022/05/24 00:30:47;;;;;;;8.13;7.33;;;;;;;;;;4991660;28;20183;-74
2022/05/24 00:33:14;;;;;;;8.13;7.33;;;;;;;;;;4992282;28;20226;-74
2022/05/24 00:35:40;;;;;;;9.20;7.07;;;;;;;;;;4975285;28;20216;-74
2022/05/24 00:38:09;;;;;;;8.70;7.80;;;;;;;;;;4991409;28;20271;-75
2022/05/24 00:40:56;;;;;;;8.97;7.43;;;;;;;;;;4991399;28;20233;-74
2022/05/24 00:43:27;;;;;;;8.13;7.33;;;;;;;;;;4991155;28;20172;-74
2022/05/24 00:45:55;;;;;;;10.60;7.27;;;;;;;;;;4991338;28;20707;-75
2022/05/24 00:48:38;;;;;;;8.40;7.40;;;;;;;;;;4992407;28;20258;-74
2022/05/24 00:51:06;;;;;;;9.27;7.80;;;;;;;;;;4975740;28;20187;-74
2022/05/24 00:53:37;;;;;;;8.47;7.57;;;;;;;;;;4991041;28;20590;-74
2022/05/24 00:56:07;;;;;;;8.93;7.97;;;;;;;;;;4992286;28;20250;-74
2022/05/24 00:58:39;;;;;;;9.07;8.17;;;;;;;;;;4992625;28;20191;-75
2022/05/24 01:01:16;;;;;;;9.03;7.97;;;;;;;;;;4993080;28;20176;-74
2022/05/24 01:03:42;;;;;;;8.50;7.50;;;;;;;;;;4995992;28;20176;-74
2022/05/24 01:06:08;;;;;;;9.30;8.07;;;;;;;;;;4978622;28;20180;-74
2022/05/24 01:08:34;;;;;;;9.20;7.37;;;;;;;;;;4978481;28;20286;-74
2022/05/24 01:11:02;;;;;;;9.83;7.90;;;;;;;;;;4978843;28;20278;-75
2022/05/24 01:13:30;;;;;;;8.80;7.33;;;;;;;;;;4994326;28;20208;-74
2022/05/24 01:15:56;;;;;;;8.10;7.27;;;;;;;;;;4995581;28;20570;-74
2022/05/24 01:18:24;;;;;;;8.10;7.23;;;;;;;;;;4994180;28;20175;-75
2022/05/24 01:20:53;;;;;;;9.10;7.87;;;;;;;;;;4995850;28;20182;-74
2022/05/24 01:23:28;;;;;;;8.73;7.87;;;;;;;;;;4994144;28;20665;-75
2022/05/24 01:26:12;;;;;;;8.70;7.80;;;;;;;;;;4994384;28;20233;-74
2022/05/24 01:28:54;;;;;;;8.60;7.80;;;;;;;;;;4994139;28;20195;-74
2022/05/24 01:31:21;;;;;;;8.57;7.43;;;;;;;;;;4994196;28;20704;-74
2022/05/24 01:36:34;;;;;;;8.23;7.43;;;;;;;;;;4995363;28;20218;-75
2022/05/24 01:39:02;;;;;;;8.83;7.67;;;;;;;;;;4993946;28;20685;-74
2022/05/24 01:41:35;;;;;;;9.47;7.97;;;;;;;;;;4994056;28;20238;-75
2022/05/24 01:44:01;;;;;;;10.27;8.23;;;;;;;;;;4993844;28;20175;-74
2022/05/24 01:46:45;;;;;;;9.50;8.50;;;;;;;;;;4994232;28;20184;-75
2022/05/24 01:49:16;;;;;;;10.10;9.07;;;;;;;;;;4985319;23;20223;-75
2022/05/24 01:51:44;;;;;;;9.97;8.97;;;;;;;;;;4993779;28;20187;-75
2022/05/24 01:54:12;;;;;;;9.83;8.83;;;;;;;;;;4993825;28;20176;-75
2022/05/24 01:56:49;;;;;;;10.17;9.10;;;;;;;;;;4993592;28;20235;-75
2022/05/24 01:59:17;;;;;;;10.37;9.27;;;;;;;;;;4994938;28;20195;-75
2022/05/24 02:01:48;;;;;;;10.30;8.43;;;;;;;;;;4977435;28;20555;-75
2022/05/24 02:04:15;;;;;;;9.97;8.40;;;;;;;;;;4994838;28;20172;-75
2022/05/24 02:06:41;;;;;;;9.00;8.10;;;;;;;;;;4993628;28;20255;-75
2022/05/24 02:09:07;;;;;;;9.57;8.60;;;;;;;;;;4977543;28;20289;-75
2022/05/24 02:11:34;;;;;;;9.00;8.10;;;;;;;;;;4993197;28;20180;-75
2022/05/24 02:14:07;;;;;;;8.73;7.83;;;;;;;;;;4976783;28;20184;-75
2022/05/24 02:16:33;;;;;;;9.10;8.20;;;;;;;;;;4993373;28;20215;-75
2022/05/24 02:19:00;;;;;;;8.80;7.60;;;;;;;;;;4993027;28;20195;-75
2022/05/24 02:21:26;;;;;;;9.17;8.27;;;;;;;;;;4977085;28;20187;-75
2022/05/24 02:23:52;;;;;;;9.40;8.50;;;;;;;;;;4993291;28;20176;-75
2022/05/24 02:26:20;;;;;;;9.47;8.57;;;;;;;;;;4977374;28;20194;-75
2022/05/24 02:28:49;;;;;;;9.60;8.70;;;;;;;;;;4993369;28;20269;-75
2022/05/24 02:31:19;;;;;;;8.90;8.00;;;;;;;;;;4993186;28;20186;-75
2022/05/24 02:33:46;;;;;;;8.63;7.83;;;;;;;;;;4977385;28;20199;-75
2022/05/24 02:36:13;;;;;;;8.70;7.80;;;;;;;;;;4992802;28;20231;-75
2022/05/24 02:38:39;;;;;;;8.93;8.03;;;;;;;;;;4993007;28;20180;-75
2022/05/24 02:43:50;;;;;;;9.97;8.50;;;;;;;;;;4994356;28;20187;-75
2022/05/24 02:46:17;;;;;;;9.30;8.30;;;;;;;;;;4976800;28;20176;-75
2022/05/24 02:48:43;;;;;;;9.07;8.10;;;;;;;;;;4992542;28;20190;-75
2022/05/24 02:51:10;;;;;;;9.53;8.63;;;;;;;;;;4976892;28;20184;-75
2022/05/24 02:53:36;;;;;;;8.60;7.77;;;;;;;;;;4992600;28;20234;-75
2022/05/24 02:56:03;;;;;;;8.83;7.97;;;;;;;;;;4992622;28;20303;-75
2022/05/24 02:58:29;;;;;;;8.97;7.80;;;;;;;;;;4992561;28;20180;-75
2022/05/24 03:00:55;;;;;;;8.67;7.80;;;;;;;;;;4992546;28;20192;-75
2022/05/24 03:03:21;;;;;;;8.80;8.00;;;;;;;;;;4976166;28;20176;-75
2022/05/24 03:05:47;;;;;;;8.50;7.60;;;;;;;;;;4976579;28;20246;-75
2022/05/24 03:10:58;;;;;;;8.70;7.80;;;;;;;;;;4992881;28;20198;-75
2022/05/24 03:16:09;;;;;;;9.67;8.63;;;;;;;;;;4992572;28;20218;-74
2022/05/24 03:18:35;;;;;;;9.53;8.30;;;;;;;;;;4975701;28;20642;-75
2022/05/24 03:21:01;;;;;;;8.80;7.90;;;;;;;;;;4976191;28;20180;-75
2022/05/24 03:23:27;;;;;;;9.33;8.33;;;;;;;;;;4975886;28;20183;-75
2022/05/24 03:25:53;;;;;;;8.50;7.63;;;;;;;;;;4992198;28;20536;-75
2022/05/24 03:28:20;;;;;;;9.10;8.20;;;;;;;;;;4976110;28;20187;-75
2022/05/24 03:30:46;;;;;;;9.63;8.63;;;;;;;;;;4976217;28;20215;-75
2022/05/24 03:33:12;;;;;;;9.60;8.47;;;;;;;;;;4975636;28;20274;-75
2022/05/24 03:35:38;;;;;;;10.17;7.73;;;;;;;;;;4991862;28;20196;-75
2022/05/24 03:38:04;;;;;;;10.93;8.20;;;;;;;;;;4993271;28;20255;-75
2022/05/24 03:40:31;;;;;;;8.80;7.90;;;;;;;;;;4993121;28;20195;-75
2022/05/24 03:42:57;;;;;;;10.00;9.00;;;;;;;;;;4975509;28;20235;-75
2022/05/24 03:45:23;;;;;;;10.33;9.00;;;;;;;;;;4992087;28;20180;-75
2022/05/24 03:47:49;;;;;;;9.83;8.93;;;;;;;;;;4992032;28;20203;-75
2022/05/24 03:50:16;;;;;;;10.57;9.47;;;;;;;;;;4992905;28;20270;-75
2022/05/24 03:52:42;;;;;;;10.90;9.13;;;;;;;;;;4975581;28;20210;-75
2022/05/24 03:55:08;;;;;;;10.03;9.03;;;;;;;;;;4991716;28;20253;-75
2022/05/24 04:00:20;;;;;;;11.47;9.67;;;;;;;;;;4992221;28;20586;-75
2022/05/24 04:02:47;;;;;;;10.17;9.17;;;;;;;;;;4991540;28;20180;-75
2022/05/24 04:05:13;;;;;;;8.97;8.07;;;;;;;;;;4975830;28;20646;-75
2022/05/24 04:07:39;;;;;;;9.00;8.00;;;;;;;;;;4991921;28;20183;-75
2022/05/24 04:10:06;;;;;;;9.17;8.17;;;;;;;;;;4991357;28;20203;-75
2022/05/24 04:12:33;;;;;;;10.77;8.27;;;;;;;;;;4991455;28;20554;-74
2022/05/24 04:14:59;;;;;;;8.67;7.87;;;;;;;;;;4975548;28;20277;-74
2022/05/24 04:17:25;;;;;;;9.07;7.93;;;;;;;;;;4975254;28;20207;-75
2022/05/24 04:19:51;;;;;;;9.43;7.67;;;;;;;;;;4992660;28;20272;-75
2022/05/24 04:22:17;;;;;;;7.90;7.10;;;;;;;;;;4992437;28;20182;-75
2022/05/24 04:24:43;;;;;;;7.30;6.60;;;;;;;;;;4991678;28;20180;-74
2022/05/24 04:27:09;;;;;;;7.23;6.33;;;;;;;;;;4975257;28;20180;-74
2022/05/24 04:29:39;;;;;;;6.50;5.80;;;;;;;;;;4991283;28;20195;-75
2022/05/24 04:32:05;;;;;;;6.13;5.13;;;;;;;;;;4991279;28;20199;-75
2022/05/24 04:34:31;;;;;;;5.77;5.27;;;;;;;;;;4975289;28;20188;-75
2022/05/24 04:36:57;;;;;;;5.50;5.00;;;;;;;;;;4994574;28;20176;-74
2022/05/24 04:39:23;;;;;;;5.60;4.97;;;;;;;;;;4995440;28;20611;-74
2022/05/24 04:44:33;;;;;;;6.50;4.50;;;;;;;;;;4995642;28;20198;-75
2022/05/24 04:47:08;;;;;;;5.00;4.47;;;;;;;;;;4995144;28;20548;-75
2022/05/24 04:49:35;;;;;;;5.37;4.70;;;;;;;;;;4996081;28;20238;-75
2022/05/24 04:52:01;;;;;;;6.43;4.47;;;;;;;;;;4978618;28;20210;-75
2022/05/24 04:54:27;;;;;;;4.60;4.10;;;;;;;;;;4994880;28;20179;-75
2022/05/24 04:56:54;;;;;;;4.73;4.17;;;;;;;;;;4994914;28;20180;-75
2022/05/24 04:59:20;;;;;;;5.70;4.00;;;;;;;;;;4978698;28;20204;-75
2022/05/24 05:01:46;;;;;;;4.37;3.97;;;;;;;;;;4978546;28;20529;-75
2022/05/24 05:04:12;;;;;;;4.77;4.37;;;;;;;;;;4995919;28;20195;-75
2022/05/24 05:06:42;;;;;;;4.73;4.17;;;;;;;;;;4994794;28;20207;-74
2022/05/24 05:09:09;;;;;;;4.60;4.20;;;;;;;;;;4994586;28;20258;-75
2022/05/24 05:11:35;;;;;;;6.97;4.50;;;;;;;;;;4994485;28;20275;-75
2022/05/24 05:14:01;;;;;;;4.60;4.20;;;;;;;;;;4978350;28;20630;-75
2022/05/24 05:16:27;;;;;;;5.07;3.60;;;;;;;;;;4978244;28;20207;-75
2022/05/24 05:18:53;;;;;;;4.53;3.83;;;;;;;;;;4978140;28;20674;-75
2022/05/24 05:21:19;;;;;;;4.13;3.73;;;;;;;;;;4978342;28;20270;-75
2022/05/24 05:23:45;;;;;;;4.63;3.30;;;;;;;;;;4978184;28;20604;-75
2022/05/24 05:26:14;;;;;;;3.43;3.13;;;;;;;;;;4978285;28;20187;-75
2022/05/24 05:28:40;;;;;;;4.83;3.30;;;;;;;;;;4978427;28;20216;-75
2022/05/24 05:31:26;;;;;;;4.00;3.17;;;;;;;;;;4994211;28;20179;-75
2022/05/24 05:33:53;;;;;;;3.50;3.20;;;;;;;;;;4994164;28;20207;-75
2022/05/24 05:36:20;;;;;;;4.37;3.40;;;;;;;;;;4977888;28;20217;-75
2022/05/24 05:38:46;;;;;;;3.50;3.20;;;;;;;;;;4994171;28;20183;-75
2022/05/24 05:41:26;;;;;;;3.47;3.10;;;;;;;;;;4994286;28;20175;-75
2022/05/24 05:43:52;;;;;;;3.90;3.07;;;;;;;;;;4994149;28;20175;-75
2022/05/24 05:46:18;;;;;;;3.20;2.90;;;;;;;;;;4993817;28;20264;-75
2022/05/24 05:48:45;;;;;;;4.63;2.87;;;;;;;;;;4994244;28;20175;-75
2022/05/24 05:51:11;;;;;;;3.10;2.80;;;;;;;;;;4994011;28;20230;-75
2022/05/24 05:53:37;;;;;;;2.97;2.67;;;;;;;;;;4977675;28;20175;-75
2022/05/24 05:56:04;;;;;;;3.47;3.00;;;;;;;;;;4977578;28;20219;-75
2022/05/24 05:58:30;;;;;;;3.40;3.10;;;;;;;;;;4977912;28;20184;-75
2022/05/24 06:00:56;;;;;;;3.13;2.80;;;;;;;;;;4994903;28;20196;-75
2022/05/24 06:03:22;;;;;;;4.07;2.80;;;;;;;;;;4977309;28;20215;-75
2022/05/24 06:05:49;;;;;;;3.53;2.80;;;;;;;;;;4977761;28;20219;-75
2022/05/24 06:08:15;;;;;;;3.17;2.70;;;;;;;;;;4993617;28;20205;-75
2022/05/24 06:10:41;;;;;;;3.30;3.00;;;;;;;;;;4993548;28;20209;-75
2022/05/24 06:13:07;;;;;;;3.47;3.17;;;;;;;;;;4993548;28;20179;-75
2022/05/24 06:15:34;;;;;;;3.67;3.17;;;;;;;;;;4993353;28;20233;-75
2022/05/24 06:18:00;;;;;;;3.50;3.20;;;;;;;;;;4993501;28;20179;-75
2022/05/24 06:20:28;;;;;;;3.40;3.10;;;;;;;;;;4993380;28;20196;-75
2022/05/24 06:22:55;;;;;;;4.23;3.67;;;;;;;;;;4994408;28;20680;-75
2022/05/24 06:25:22;;;;;;;3.20;2.90;;;;;;;;;;4994569;28;20172;-75
2022/05/24 06:27:52;;;;;;;4.67;3.50;;;;;;;;;;4977312;28;20217;-75
2022/05/24 06:30:20;;;;;;;4.33;3.57;;;;;;;;;;4993228;28;20542;-75
2022/05/24 06:32:46;;;;;;;4.37;3.47;;;;;;;;;;4993029;28;20241;-75
2022/05/24 06:35:12;;;;;;;3.87;3.40;;;;;;;;;;4994348;28;20199;-75
2022/05/24 06:37:38;;;;;;;3.47;3.17;;;;;;;;;;4992949;28;20202;-75
2022/05/24 06:40:05;;;;;;;3.70;3.30;;;;;;;;;;4992952;28;20202;-75
2022/05/24 06:42:31;;;;;;;3.63;3.33;;;;;;;;;;4994091;28;20171;-76
2022/05/24 06:44:57;;;;;;;4.03;3.57;;;;;;;;;;4976903;28;20194;-75
2022/05/24 06:47:23;;;;;;;4.63;3.40;;;;;;;;;;4994176;28;20234;-75
2022/05/24 06:49:49;;;;;;;4.17;3.50;;;;;;;;;;4992853;28;20302;-75
2022/05/24 06:52:15;;;;;;;4.00;3.60;;;;;;;;;;4993777;28;20663;-75
2022/05/24 06:54:41;;;;;;;4.30;3.60;;;;;;;;;;4992753;28;20666;-75
2022/05/24 06:57:07;;;;;;;4.73;3.40;;;;;;;;;;4992694;28;20275;-75
2022/05/24 07:02:26;;;;;;;4.37;3.43;;;;;;;;;;4993046;28;20214;-75
2022/05/24 07:04:55;;;;;;;3.73;3.10;;;;;;;;;;4992473;28;20250;-74
2022/05/24 07:07:21;;;;;;;3.77;3.43;;;;;;;;;;4994096;28;20221;-75
2022/05/24 07:09:47;;;;;;;3.60;3.30;;;;;;;;;;4976230;28;20238;-75
2022/05/24 07:12:17;;;;;;;5.63;3.27;;;;;;;;;;4976163;28;20180;-75
2022/05/24 07:14:43;;;;;;;5.97;3.70;;;;;;;;;;4992269;28;20190;-75
2022/05/24 07:17:10;;;;;;;3.53;3.23;;;;;;;;;;4976104;28;20601;-75
2022/05/24 07:19:38;;;;;;;5.27;3.60;;;;;;;;;;4992135;28;20211;-75
2022/05/24 07:22:04;;;;;;;3.30;3.00;;;;;;;;;;4993389;28;20654;-75
2022/05/24 07:24:30;;;;;;;3.40;3.07;;;;;;;;;;4992379;28;20182;-75
2022/05/24 07:26:56;;;;;;;4.50;3.00;;;;;;;;;;4976210;28;20274;-75
2022/05/24 07:29:22;;;;;;;3.60;2.70;;;;;;;;;;4976015;28;20199;-75
2022/05/24 07:31:49;;;;;;;3.60;3.30;;;;;;;;;;4993062;28;20778;-75
2022/05/24 07:34:14;;;;;;;3.33;2.67;;;;;;;;;;4991970;28;20557;-75
2022/05/24 07:36:40;;;;;;;2.70;2.30;;;;;;;;;;4976054;28;20214;-75
2022/05/24 07:39:06;;;;;;;2.80;2.60;;;;;;;;;;4993037;28;20280;-75
2022/05/24 07:47:01;;;;;;;4.07;3.20;;;;;;;;;;4992407;28;20215;-75
2022/05/24 07:49:28;;;;;;;3.43;3.13;;;;;;;;;;5000141;22;20227;-74
2022/05/24 07:51:54;;;;;;;4.23;3.40;;;;;;;;;;4991753;28;20259;-74
2022/05/24 07:54:20;;;;;;;4.40;3.50;;;;;;;;;;4976008;28;20183;-74
2022/05/24 07:56:46;;;;;;;4.33;2.87;;;;;;;;;;4975472;28;20211;-74
2022/05/24 07:59:12;;;;;;;3.33;3.00;;;;;;;;;;4975567;28;20204;-74
2022/05/24 08:01:40;;;;;;;3.47;3.00;;;;;;;;;;4992915;28;20602;-74
2022/05/24 08:04:06;;;;;;;3.10;2.80;;;;;;;;;;4992853;28;20616;-74
2022/05/24 08:06:32;;;;;;;3.37;3.00;;;;;;;;;;4975905;28;20725;-74
2022/05/24 08:08:58;;;;;;;4.93;3.30;;;;;;;;;;4975445;28;20180;-74
2022/05/24 08:11:24;;;;;;;3.83;3.20;;;;;;;;;;4991001;28;20191;-74
2022/05/24 08:13:50;;;;;;;2.90;2.70;;;;;;;;;;4975541;28;20282;-74
2022/05/24 08:16:16;;;;;;;2.20;2.00;;;;;;;;;;4975337;28;20261;-74
2022/05/24 08:18:44;;;;;;;2.43;1.70;;;;;;;;;;4975368;28;20172;-74
2022/05/24 08:21:10;;;;;;;3.30;1.57;;;;;;;;;;4991445;28;20567;-74
2022/05/24 08:23:36;;;;;;;1.60;1.50;;;;;;;;;;4991281;28;20168;-74
2022/05/24 08:26:02;;;;;;;1.40;1.30;;;;;;;;;;4991317;28;20234;-74
2022/05/24 08:28:28;;;;;;;1.67;1.57;;;;;;;;;;4975320;28;20654;-74
2022/05/24 08:30:54;;;;;;;2.07;1.50;;;;;;;;;;4992476;28;20274;-74
2022/05/24 08:33:21;;;;;;;2.87;1.30;;;;;;;;;;4991458;28;20176;-74
2022/05/24 08:35:47;;;;;;;1.40;1.30;;;;;;;;;;4991329;28;20207;-74
2022/05/24 08:38:14;;;;;;;1.10;1.00;;;;;;;;;;4991497;28;20198;-74
2022/05/24 08:40:41;;;;;;;2.20;0.90;;;;;;;;;;4991222;28;20199;-74
2022/05/24 08:43:12;;;;;;;1.07;0.97;;;;;;;;;;4991299;28;20634;-74
2022/05/24 08:48:58;;;;;;;1.43;0.80;;;;;;;;;;4992869;28;20238;-74
2022/05/24 08:51:27;;;;;;;1.97;0.87;;;;;;;;;;4991115;28;20202;-74
2022/05/24 08:53:55;;;;;;;0.90;0.80;;;;;;;;;;4991223;28;20257;-74
2022/05/24 08:56:25;;;;;;;0.70;0.70;;;;;;;;;;4992414;28;20208;-74
2022/05/24 08:58:54;;;;;;;1.73;0.90;;;;;;;;;;4991302;28;20172;-74
2022/05/24 09:01:32;;;;;;;1.00;0.80;;;;;;;;;;4992539;28;20623;-74
2022/05/24 09:03:58;;;;;;;0.70;0.70;;;;;;;;;;4991025;28;20180;-74
2022/05/24 09:06:45;;;;;;;1.07;0.80;;;;;;;;;;4991045;28;20182;-74
2022/05/24 09:09:10;;;;;;;3.70;1.03;;;;;;;;;;4992208;28;20238;-74
2022/05/24 09:11:45;;;;;;;1.07;0.80;;;;;;;;;;4991083;28;20183;-73
2022/05/24 09:14:13;;;;;;;0.80;0.80;;;;;;;;;;4992241;28;20203;-74
2022/05/24 09:16:45;;;;;;;0.80;0.70;;;;;;;;;;4991097;28;20207;-74
2022/05/24 09:19:16;;;;;;;0.80;0.80;;;;;;;;;;4990823;28;20634;-74
2022/05/24 09:21:43;;;;;;;2.03;0.90;;;;;;;;;;4992112;28;20184;-74
2022/05/24 09:24:18;;;;;;;0.80;0.80;;;;;;;;;;4994453;28;20187;-74
2022/05/24 09:27:03;;;;;;;1.90;0.83;;;;;;;;;;4995726;28;20172;-74
2022/05/24 09:29:31;;;;;;;2.10;0.60;;;;;;;;;;4994426;28;20203;-74
2022/05/24 09:31:58;;;;;;;0.80;0.80;;;;;;;;;;4994253;28;20270;-74
2022/05/24 09:34:28;;;;;;;0.80;0.80;;;;;;;;;;4994357;28;20175;-74
2022/05/24 09:36:59;;;;;;;0.93;0.83;;;;;;;;;;4994097;28;20208;-74
2022/05/24 09:39:25;;;;;;;1.73;0.90;;;;;;;;;;4994089;28;20199;-74
2022/05/24 09:41:54;;;;;;;0.90;0.90;;;;;;;;;;4994140;28;20180;-74
2022/05/24 09:44:20;;;;;;;1.53;0.90;;;;;;;;;;4994308;28;20172;-74
2022/05/24 09:46:47;;;;;;;0.80;0.80;;;;;;;;;;4995259;28;20599;-74
2022/05/24 09:49:19;;;;;;;0.80;0.80;;;;;;;;;;4993848;28;20265;-74
2022/05/24 09:51:45;;;;;;;1.80;0.90;;;;;;;;;;4993822;28;20195;-74
2022/05/24 09:54:13;;;;;;;0.73;0.60;;;;;;;;;;4995295;28;20175;-74
2022/05/24 09:56:40;;;;;;;0.70;0.70;;;;;;;;;;4993856;28;20207;-74
2022/05/24 09:59:07;;;;;;;0.73;0.73;;;;;;;;;;4993709;28;20183;-73
2022/05/24 10:01:36;;;;;;;0.60;0.60;;;;;;;;;;4993919;28;20176;-74
2022/05/24 10:04:14;;;;;;;0.67;0.67;;;;;;;;;;4993525;28;20183;-74
2022/05/24 10:06:41;;;;;;;1.17;0.70;;;;;;;;;;4994013;28;20254;-74
2022/05/24 10:09:19;;;;;;;0.70;0.70;;;;;;;;;;4977464;28;20532;-74
2022/05/24 10:11:53;;;;;;;1.10;0.70;;;;;;;;;;4993579;28;20196;-74
2022/05/24 10:14:19;;;;;;;0.80;0.70;;;;;;;;;;4993534;28;20180;-74
2022/05/24 10:16:49;;;;;;;0.70;0.50;;;;;;;;;;4994656;28;20223;-74
2022/05/24 10:19:31;;;;;;;0.60;0.60;;;;;;;;;;4993224;28;20195;-74
2022/05/24 10:22:09;;;;;;;0.73;0.73;;;;;;;;;;4994575;28;20175;-74
2022/05/24 10:24:35;;;;;;;1.00;0.80;;;;;;;;;;4993538;28;20167;-74
2022/05/24 10:27:04;;;;;;;0.70;0.70;;;;;;;;;;4993314;28;20190;-74
2022/05/24 10:29:47;;;;;;;2.13;0.87;;;;;;;;;;4993421;28;20203;-74
2022/05/24 10:38:19;;;;;;;0.70;0.70;;;;;;;;;;4993594;28;20198;-73
2022/05/24 10:40:56;;;;;;;0.70;0.70;;;;;;;;;;4994352;28;20274;-74
2022/05/24 10:43:41;;;;;;;1.13;0.67;;;;;;;;;;4994142;28;20594;-74
2022/05/24 10:46:11;;;;;;;0.60;0.60;;;;;;;;;;4993078;28;20579;-74
2022/05/24 10:48:48;;;;;;;0.70;0.70;;;;;;;;;;4992989;28;20175;-74
2022/05/24 10:51:18;;;;;;;0.70;0.70;;;;;;;;;;4994045;28;20255;-73
2022/05/24 10:53:48;;;;;;;0.73;0.73;;;;;;;;;;4992644;28;20183;-74
2022/05/24 10:56:23;;;;;;;1.63;0.90;;;;;;;;;;4993896;28;20180;-74
2022/05/24 10:58:50;;;;;;;1.67;0.73;;;;;;;;;;4994031;28;20225;-74
2022/05/24 11:01:19;;;;;;;0.93;0.90;;;;;;;;;;4992689;28;20204;-74
2022/05/24 11:03:48;;;;;;;1.10;1.00;;;;;;;;;;4992524;28;20185;-74
2022/05/24 11:06:13;;;;;;;1.13;0.90;;;;;;;;;;4993689;28;20192;-74
2022/05/24 11:08:44;;;;;;;1.00;0.90;;;;;;;;;;4993641;28;20631;-74
2022/05/24 11:11:30;;;;;;;1.00;0.90;;;;;;;;;;4992368;28;20196;-74
2022/05/24 11:14:04;;;;;;;1.10;1.00;;;;;;;;;;4992280;28;20721;-74
2022/05/24 11:16:36;;;;;;;0.90;0.90;;;;;;;;;;4992603;28;20266;-74
2022/05/24 11:19:02;;;;;;;1.00;0.90;;;;;;;;;;4993331;28;20187;-74
2022/05/24 11:21:33;;;;;;;0.90;0.90;;;;;;;;;;4993589;28;20250;-74
2022/05/24 11:24:03;;;;;;;1.27;0.90;;;;;;;;;;4992457;28;20184;-74
2022/05/24 11:26:32;;;;;;;2.07;0.77;;;;;;;;;;4992204;28;20211;-73
2022/05/24 11:28:59;;;;;;;1.00;0.80;;;;;;;;;;4992517;28;20258;-74
2022/05/24 11:31:44;;;;;;;1.80;1.00;;;;;;;;;;4992318;28;20237;-74
2022/05/24 11:34:20;;;;;;;0.60;0.60;;;;;;;;;;4992370;28;20176;-74
2022/05/24 11:36:49;;;;;;;0.77;0.70;;;;;;;;;;4993385;28;20183;-74
2022/05/24 11:39:27;;;;;;;1.47;0.90;;;;;;;;;;4975924;28;20203;-74
2022/05/24 11:42:11;;;;;;;0.60;0.60;;;;;;;;;;4992983;28;20187;-74
2022/05/24 11:44:37;;;;;;;0.67;0.60;;;;;;;;;;4991567;28;20179;-74
2022/05/24 11:47:04;;;;;;;0.50;0.50;;;;;;;;;;4975462;28;20215;-74
2022/05/24 11:49:30;;;;;;;1.13;0.70;;;;;;;;;;4991938;28;20203;-74
2022/05/24 11:51:57;;;;;;;0.53;0.53;;;;;;;;;;4991712;28;20191;-74
2022/05/24 11:54:23;;;;;;;0.60;0.60;;;;;;;;;;4991754;28;20176;-74
2022/05/24 11:56:53;;;;;;;1.10;0.70;;;;;;;;;;4992079;28;20214;-74
2022/05/24 11:59:38;;;;;;;0.60;0.60;;;;;;;;;;4991904;28;20196;-74
2022/05/24 12:02:26;;;;;;;0.70;0.70;;;;;;;;;;4991614;28;20183;-74
2022/05/24 12:07:55;;;;;;;2.00;1.07;;;;;;;;;;4993162;28;20256;-74
2022/05/24 12:10:21;;;;;;;0.63;0.63;;;;;;;;;;4991697;28;20203;-74
2022/05/24 12:12:50;;;;;;;1.23;0.80;;;;;;;;;;4992800;28;20171;-74
2022/05/24 12:15:20;;;;;;;0.70;0.70;;;;;;;;;;4991573;28;20198;-74
2022/05/24 12:17:48;;;;;;;0.70;0.70;;;;;;;;;;4991636;28;20269;-74
2022/05/24 12:20:40;;;;;;;0.80;0.80;;;;;;;;;;4991686;28;20199;-74
2022/05/24 12:23:09;;;;;;;0.70;0.70;;;;;;;;;;4976401;28;20250;-74
2022/05/24 12:25:54;;;;;;;0.70;0.70;;;;;;;;;;4991442;28;20203;-74
2022/05/24 12:28:21;;;;;;;1.37;0.83;;;;;;;;;;4991776;28;20179;-74
2022/05/24 12:30:48;;;;;;;1.00;0.60;;;;;;;;;;4991428;28;20198;-74
2022/05/24 12:33:25;;;;;;;3.23;1.10;;;;;;;;;;4991545;28;20266;-74
2022/05/24 12:36:06;;;;;;;0.70;0.70;;;;;;;;;;4991461;28;20194;-74
2022/05/24 12:38:33;;;;;;;1.40;0.97;;;;;;;;;;4991656;28;20186;-74
2022/05/24 12:41:25;;;;;;;1.03;0.70;;;;;;;;;;4991219;28;20199;-74
2022/05/24 12:43:58;;;;;;;0.63;0.63;;;;;;;;;;4989247;28;20180;-74
2022/05/24 12:46:27;;;;;;;0.80;0.70;;;;;;;;;;4991231;28;20200;-74
2022/05/24 12:48:58;;;;;;;0.80;0.80;;;;;;;;;;4991168;28;20172;-73
2022/05/24 12:51:24;;;;;;;1.80;0.73;;;;;;;;;;4991385;28;20558;-74
2022/05/24 12:53:50;;;;;;;1.03;0.80;;;;;;;;;;4974824;28;20183;-74
2022/05/24 12:56:19;;;;;;;1.60;0.80;;;;;;;;;;4975620;28;20191;-74
2022/05/24 12:58:47;;;;;;;1.10;1.00;;;;;;;;;;4994925;28;20184;-74
2022/05/24 13:01:26;;;;;;;1.90;0.90;;;;;;;;;;4995948;28;20198;-74
2022/05/24 13:03:56;;;;;;;0.60;0.60;;;;;;;;;;4978760;28;20554;-74
2022/05/24 13:06:23;;;;;;;1.20;0.80;;;;;;;;;;4994888;28;20207;-74
2022/05/24 13:09:07;;;;;;;0.63;0.63;;;;;;;;;;4994759;28;20172;-74
2022/05/24 13:11:35;;;;;;;0.73;0.73;;;;;;;;;;4994644;28;20255;-74
2022/05/24 13:14:01;;;;;;;0.70;0.70;;;;;;;;;;4978648;28;20187;-74
2022/05/24 13:16:27;;;;;;;1.17;0.97;;;;;;;;;;4978625;28;20188;-74
2022/05/24 13:18:55;;;;;;;0.60;0.60;;;;;;;;;;4995444;28;20187;-74
2022/05/24 13:21:24;;;;;;;0.70;0.70;;;;;;;;;;4994592;28;20183;-74
2022/05/24 13:24:06;;;;;;;1.47;0.90;;;;;;;;;;4994519;28;20266;-74
2022/05/24 13:26:32;;;;;;;0.83;0.80;;;;;;;;;;4994603;28;20285;-74
2022/05/24 13:29:18;;;;;;;0.70;0.70;;;;;;;;;;4994438;28;20175;-74
2022/05/24 13:34:33;;;;;;;1.00;0.70;;;;;;;;;;4994773;28;20194;-74
2022/05/24 13:37:01;;;;;;;0.80;0.70;;;;;;;;;;4994204;28;20179;-74
2022/05/24 13:39:36;;;;;;;1.53;0.83;;;;;;;;;;4978292;28;20257;-74
2022/05/24 13:42:05;;;;;;;1.50;0.80;;;;;;;;;;4994015;28;20557;-74
2022/05/24 13:44:34;;;;;;;1.85;0.82;;;;;;;;;;4995550;28;20259;-74
2022/05/24 13:47:02;;;;;;;1.63;0.77;;;;;;;;;;4993902;28;20270;-74
2022/05/24 13:49:29;;;;;;;0.70;0.70;;;;;;;;;;4994578;28;20208;-73
2022/05/24 13:52:11;;;;;;;1.15;0.60;;;;;;;;;;4978341;28;20180;-74
2022/05/24 13:54:37;;;;;;;0.77;0.77;;;;;;;;;;4994219;28;20199;-74
2022/05/24 13:57:05;;;;;;;1.25;0.70;;;;;;;;;;4994024;28;20266;-74
2022/05/24 15:16:05;;;;;;;1.03;0.70;;;;;;;;;;4993097;28;20190;-74
2022/05/24 15:18:31;;;;;;;0.73;0.70;;;;;;;;;;4976092;28;20190;-74
2022/05/24 15:20:57;;;;;;;0.77;0.77;;;;;;;;;;4992227;28;20199;-74
2022/05/24 15:23:25;;;;;;;0.93;0.60;;;;;;;;;;5017415;22;20188;-73
2022/05/24 15:25:53;;;;;;;1.33;0.70;;;;;;;;;;4974011;28;20200;-73
2022/05/24 15:28:20;;;;;;;0.83;0.70;;;;;;;;;;4972725;28;20176;-74
2022/05/24 15:30:46;;;;;;;1.35;0.70;;;;;;;;;;4972860;28;20176;-74
2022/05/24 15:33:13;;;;;;;0.80;0.63;;;;;;;;;;4956488;28;20247;-74
2022/05/24 15:35:39;;;;;;;0.93;0.53;;;;;;;;;;4988751;28;20279;-74
2022/05/24 15:38:05;;;;;;;1.23;0.70;;;;;;;;;;4988953;28;20184;-74
2022/05/24 15:40:33;;;;;;;0.60;0.60;;;;;;;;;;4988960;28;20185;-74
2022/05/24 15:43:00;;;;;;;2.07;0.90;;;;;;;;;;4988582;28;20181;-74
2022/05/24 15:45:26;;;;;;;1.03;0.77;;;;;;;;;;4973646;28;20285;-74
2022/05/24 15:47:52;;;;;;;0.70;0.63;;;;;;;;;;4973732;28;20177;-74
2022/05/24 15:50:18;;;;;;;0.90;0.80;;;;;;;;;;4972541;28;20275;-74
2022/05/24 15:52:44;;;;;;;2.23;1.80;;;;;;;;;;4988355;28;20180;-74
2022/05/24 15:55:11;;;;;;;1.73;0.80;;;;;;;;;;4973562;28;20197;-74
2022/05/24 15:57:37;;;;;;;0.80;0.75;;;;;;;;;;4988516;28;20203;-74
2022/05/24 16:00:05;;;;;;;1.08;0.60;;;;;;;;;;4972328;28;20658;-74
2022/05/24 16:02:31;;;;;;;2.00;0.63;;;;;;;;;;4988560;28;20173;-74
2022/05/24 16:10:26;;;;;;;1.20;0.70;;;;;;;;;;4973724;28;20721;-74
2022/05/24 16:12:54;;;;;;;0.60;0.60;;;;;;;;;;4988173;28;20172;-74
2022/05/24 16:15:22;;;;;;;2.30;0.90;;;;;;;;;;4972084;28;20583;-74
2022/05/24 16:17:49;;;;;;;1.55;0.82;;;;;;;;;;4972139;28;20188;-74
2022/05/24 16:20:15;;;;;;;0.70;0.70;;;;;;;;;;4972263;28;20286;-74
2022/05/24 16:22:43;;;;;;;0.85;0.70;;;;;;;;;;4972066;28;20187;-74
2022/05/24 16:25:09;;;;;;;0.80;0.75;;;;;;;;;;4973098;28;20211;-74
2022/05/24 16:27:36;;;;;;;1.33;0.80;;;;;;;;;;4973258;28;20184;-74
2022/05/24 16:30:02;;;;;;;0.70;0.70;;;;;;;;;;4972068;28;20180;-74
2022/05/24 16:32:28;;;;;;;1.48;0.80;;;;;;;;;;4974569;28;20188;-74
2022/05/24 16:34:54;;;;;;;1.40;0.80;;;;;;;;;;4992330;28;20214;-74
2022/05/24 16:37:20;;;;;;;1.13;0.80;;;;;;;;;;4977125;28;20172;-74
2022/05/24 16:39:46;;;;;;;1.38;0.90;;;;;;;;;;4975731;28;20180;-74
2022/05/24 16:42:14;;;;;;;0.90;0.80;;;;;;;;;;4976935;28;20168;-74
2022/05/24 16:44:40;;;;;;;0.88;0.70;;;;;;;;;;4975727;28;20226;-74
2022/05/24 16:47:06;;;;;;;0.70;0.70;;;;;;;;;;4991981;28;20239;-74
2022/05/24 16:49:32;;;;;;;1.17;0.80;;;;;;;;;;4975726;28;20218;-74
2022/05/24 16:52:03;;;;;;;1.42;0.70;;;;;;;;;;4991724;28;20212;-74
2022/05/24 17:00:12;;;;;;;1.77;1.30;;;;;;;;;;4977036;28;20307;-74